createdAt,value
2023-04-23T00:00:08.487Z,95339.00
2023-04-23T00:01:08.551Z,95337.00
2023-04-23T00:02:07.471Z,95337.00
2023-04-23T00:03:08.538Z,95341.00
2023-04-23T00:04:08.534Z,95345.00
2023-04-23T00:05:08.488Z,95345.00
2023-04-23T00:06:08.426Z,95347.00
2023-04-23T00:07:08.438Z,95349.00
2023-04-23T00:08:07.415Z,95347.00
2023-04-23T00:09:08.411Z,95347.00
2023-04-23T00:10:07.394Z,95345.00
2023-04-23T00:11:08.389Z,95343.00
2023-04-23T00:12:08.388Z,95343.00
2023-04-23T00:13:08.388Z,95339.00
2023-04-23T00:14:07.395Z,95337.00
2023-04-23T00:15:08.388Z,95335.00
2023-04-23T00:16:07.491Z,95335.00
2023-04-23T00:17:08.455Z,95329.00
2023-04-23T00:18:08.456Z,95335.00
2023-04-23T00:19:08.464Z,95329.00
2023-04-23T00:20:07.513Z,95335.00
2023-04-23T00:21:07.524Z,95329.00
2023-04-23T00:22:07.537Z,95329.00
2023-04-23T00:23:08.594Z,95331.00
2023-04-23T00:24:07.569Z,95331.00
2023-04-23T00:25:08.602Z,95333.00
2023-04-23T00:26:08.628Z,95335.00
2023-04-23T00:27:07.648Z,95331.00
2023-04-23T00:28:07.666Z,95335.00
2023-04-23T00:29:08.680Z,95333.00
2023-04-23T00:30:08.714Z,95333.00
2023-04-23T00:31:07.826Z,95333.00
2023-04-23T00:32:08.815Z,95333.00
2023-04-23T00:33:08.799Z,95331.00
2023-04-23T00:34:08.793Z,95333.00
2023-04-23T00:35:07.813Z,95333.00
2023-04-23T00:36:08.839Z,95333.00
2023-04-23T00:37:07.863Z,95335.00
2023-04-23T00:38:08.901Z,95335.00
2023-04-23T00:39:08.930Z,95335.00
2023-04-23T00:40:08.912Z,95337.00
2023-04-23T00:41:07.933Z,95337.00
2023-04-23T00:42:08.955Z,95337.00
2023-04-23T00:43:08.994Z,95333.00
2023-04-23T00:44:08.018Z,95337.00
2023-04-23T00:45:09.058Z,95337.00
2023-04-23T00:46:09.115Z,95335.00
2023-04-23T00:47:09.076Z,95339.00
2023-04-23T00:48:08.094Z,95335.00
2023-04-23T00:49:09.169Z,95335.00
2023-04-23T00:50:09.228Z,95337.00
2023-04-23T00:51:08.185Z,95335.00
2023-04-23T00:52:08.194Z,95335.00
2023-04-23T00:53:08.221Z,95335.00
2023-04-23T00:54:09.246Z,95331.00
2023-04-23T00:55:08.312Z,95333.00
2023-04-23T00:56:09.301Z,95329.00
2023-04-23T00:57:08.317Z,95331.00
2023-04-23T00:58:08.330Z,95329.00
2023-04-23T00:59:09.366Z,95331.00
2023-04-23T01:00:09.385Z,95335.00
2023-04-23T01:01:09.445Z,95329.00
2023-04-23T01:02:09.499Z,95331.00
2023-04-23T01:03:08.622Z,95331.00
2023-04-23T01:04:08.625Z,95333.00
2023-04-23T01:05:09.484Z,95333.00
2023-04-23T01:06:09.525Z,95335.00
2023-04-23T01:07:09.544Z,95337.00
2023-04-23T01:08:09.566Z,95337.00
2023-04-23T01:09:08.599Z,95339.00
2023-04-23T01:10:09.773Z,95341.00
2023-04-23T01:11:08.644Z,95343.00
2023-04-23T01:12:08.680Z,95341.00
2023-04-23T01:13:08.694Z,95339.00
2023-04-23T01:14:09.727Z,95339.00
2023-04-23T01:15:09.752Z,95337.00
2023-04-23T01:16:08.787Z,95335.00
2023-04-23T01:17:08.841Z,95337.00
2023-04-23T01:18:08.827Z,95339.00
2023-04-23T01:19:08.852Z,95337.00
2023-04-23T01:20:09.915Z,95337.00
2023-04-23T01:21:09.938Z,95337.00
2023-04-23T01:22:08.992Z,95339.00
2023-04-23T01:23:09.991Z,95337.00
2023-04-23T01:24:10.025Z,95339.00
2023-04-23T01:25:10.079Z,95339.00
2023-04-23T01:26:10.104Z,95333.00
2023-04-23T01:27:10.098Z,95335.00
2023-04-23T01:28:09.145Z,95335.00
2023-04-23T01:29:10.151Z,95335.00
2023-04-23T01:30:10.185Z,95333.00
2023-04-23T01:31:10.241Z,95331.00
2023-04-23T01:32:10.219Z,95331.00
2023-04-23T01:33:10.250Z,95329.00
2023-04-23T01:34:09.271Z,95331.00
2023-04-23T01:35:09.296Z,95329.00
2023-04-23T01:36:10.479Z,95331.00
2023-04-23T01:37:10.448Z,95331.00
2023-04-23T01:38:09.410Z,95327.00
2023-04-23T01:39:10.452Z,95331.00
2023-04-23T01:40:09.527Z,95325.00
2023-04-23T01:41:10.538Z,95327.00
2023-04-23T01:42:10.562Z,95327.00
2023-04-23T01:43:09.546Z,95327.00
2023-04-23T01:44:10.663Z,95325.00
2023-04-23T01:45:10.799Z,95323.00
2023-04-23T01:46:09.676Z,95321.00
2023-04-23T01:47:10.647Z,95323.00
2023-04-23T01:48:10.668Z,95323.00
2023-04-23T01:49:10.686Z,95321.00
2023-04-23T01:50:11.026Z,95323.00
2023-04-23T01:51:10.755Z,95317.00
2023-04-23T01:52:10.814Z,95319.00
2023-04-23T01:53:10.853Z,95321.00
2023-04-23T01:54:09.832Z,95323.00
2023-04-23T01:55:10.850Z,95321.00
2023-04-23T01:56:09.894Z,95323.00
2023-04-23T01:57:10.911Z,95321.00
2023-04-23T01:58:10.995Z,95321.00
2023-04-23T01:59:10.968Z,95321.00
2023-04-23T02:00:11.008Z,95323.00
2023-04-23T02:01:10.116Z,95321.00
2023-04-23T02:02:11.147Z,95319.00
2023-04-23T02:03:11.227Z,95321.00
2023-04-23T02:04:11.234Z,95321.00
2023-04-23T02:05:10.160Z,95323.00
2023-04-23T02:06:10.214Z,95323.00
2023-04-23T02:07:10.258Z,95321.00
2023-04-23T02:08:10.261Z,95321.00
2023-04-23T02:09:10.292Z,95317.00
2023-04-23T02:10:10.311Z,95319.00
2023-04-23T02:11:11.364Z,95319.00
2023-04-23T02:12:11.530Z,95317.00
2023-04-23T02:13:11.425Z,95317.00
2023-04-23T02:14:11.492Z,95319.00
2023-04-23T02:15:10.508Z,95319.00
2023-04-23T02:16:10.571Z,95321.00
2023-04-23T02:17:11.555Z,95321.00
2023-04-23T02:18:11.628Z,95323.00
2023-04-23T02:19:10.611Z,95321.00
2023-04-23T02:20:11.653Z,95321.00
2023-04-23T02:21:11.684Z,95321.00
2023-04-23T02:22:11.725Z,95321.00
2023-04-23T02:23:11.828Z,95321.00
2023-04-23T02:24:11.864Z,95323.00
2023-04-23T02:25:11.818Z,95319.00
2023-04-23T02:26:10.849Z,95321.00
2023-04-23T02:27:11.877Z,95317.00
2023-04-23T02:28:11.907Z,95317.00
2023-04-23T02:29:11.949Z,95317.00
2023-04-23T02:30:11.009Z,95315.00
2023-04-23T02:31:11.036Z,95310.00
2023-04-23T02:32:11.045Z,95308.00
2023-04-23T02:33:12.068Z,95308.00
2023-04-23T02:34:11.646Z,95306.00
2023-04-23T02:35:11.131Z,95304.00
2023-04-23T02:36:11.176Z,95304.00
2023-04-23T02:37:11.208Z,95302.00
2023-04-23T02:38:12.246Z,95300.00
2023-04-23T02:39:11.279Z,95300.00
2023-04-23T02:40:12.001Z,95296.00
2023-04-23T02:41:12.358Z,95294.00
2023-04-23T02:42:12.391Z,95298.00
2023-04-23T02:43:11.442Z,95294.00
2023-04-23T02:44:11.468Z,95296.00
2023-04-23T02:45:12.511Z,95296.00
2023-04-23T02:46:12.619Z,95298.00
2023-04-23T02:47:11.591Z,95298.00
2023-04-23T02:48:12.614Z,95294.00
2023-04-23T02:49:12.648Z,95296.00
2023-04-23T02:50:11.717Z,95294.00
2023-04-23T02:51:12.752Z,95294.00
2023-04-23T02:52:12.798Z,95290.00
2023-04-23T02:53:11.794Z,95288.00
2023-04-23T02:54:12.841Z,95288.00
2023-04-23T02:55:12.881Z,95282.00
2023-04-23T02:56:11.902Z,95282.00
2023-04-23T02:57:11.961Z,95280.00
2023-04-23T02:58:12.989Z,95278.00
2023-04-23T02:59:12.014Z,95272.00
2023-04-23T03:00:13.051Z,95270.00
2023-04-23T03:01:13.146Z,95270.00
2023-04-23T03:02:13.271Z,95270.00
2023-04-23T03:03:13.246Z,95268.00
2023-04-23T03:04:13.344Z,95268.00
2023-04-23T03:05:13.255Z,95268.00
2023-04-23T03:06:13.282Z,95268.00
2023-04-23T03:07:12.322Z,95270.00
2023-04-23T03:08:13.376Z,95270.00
2023-04-23T03:09:13.404Z,95274.00
2023-04-23T03:10:13.450Z,95272.00
2023-04-23T03:11:13.481Z,95274.00
2023-04-23T03:12:12.512Z,95276.00
2023-04-23T03:13:12.556Z,95278.00
2023-04-23T03:14:13.580Z,95280.00
2023-04-23T03:15:13.607Z,95282.00
2023-04-23T03:16:12.708Z,95280.00
2023-04-23T03:17:12.697Z,95284.00
2023-04-23T03:18:13.756Z,95284.00
2023-04-23T03:19:13.762Z,95284.00
2023-04-23T03:20:13.804Z,95286.00
2023-04-23T03:21:12.842Z,95290.00
2023-04-23T03:22:13.878Z,95290.00
2023-04-23T03:23:13.975Z,95292.00
2023-04-23T03:24:12.951Z,95294.00
2023-04-23T03:25:14.003Z,95296.00
2023-04-23T03:26:14.039Z,95298.00
2023-04-23T03:27:14.118Z,95298.00
2023-04-23T03:28:14.121Z,95300.00
2023-04-23T03:29:13.189Z,95300.00
2023-04-23T03:30:14.185Z,95300.00
2023-04-23T03:31:13.307Z,95300.00
2023-04-23T03:32:13.288Z,95300.00
2023-04-23T03:33:13.326Z,95300.00
2023-04-23T03:34:14.407Z,95300.00
2023-04-23T03:35:13.407Z,95298.00
2023-04-23T03:36:13.446Z,95296.00
2023-04-23T03:37:13.506Z,95298.00
2023-04-23T03:38:14.552Z,95300.00
2023-04-23T03:39:14.590Z,95302.00
2023-04-23T03:40:14.640Z,95302.00
2023-04-23T03:41:13.676Z,95304.00
2023-04-23T03:42:14.717Z,95304.00
2023-04-23T03:43:13.766Z,95302.00
2023-04-23T03:44:14.801Z,95304.00
2023-04-23T03:45:14.880Z,95304.00
2023-04-23T03:46:15.181Z,95304.00
2023-04-23T03:47:14.917Z,95302.00
2023-04-23T03:48:14.964Z,95304.00
2023-04-23T03:49:15.019Z,95306.00
2023-04-23T03:50:15.103Z,95306.00
2023-04-23T03:51:15.087Z,95304.00
2023-04-23T03:52:15.131Z,95306.00
2023-04-23T03:53:14.184Z,95302.00
2023-04-23T03:54:14.207Z,95304.00
2023-04-23T03:55:15.288Z,95302.00
2023-04-23T03:56:15.583Z,95296.00
2023-04-23T03:57:15.342Z,95300.00
2023-04-23T03:58:15.361Z,95298.00
2023-04-23T03:59:14.419Z,95300.00
2023-04-23T04:00:15.442Z,95300.00
2023-04-23T04:01:15.537Z,95300.00
2023-04-23T04:02:14.637Z,95300.00
2023-04-23T04:03:15.783Z,95300.00
2023-04-23T04:04:15.947Z,95300.00
2023-04-23T04:05:14.768Z,95300.00
2023-04-23T04:06:14.721Z,95300.00
2023-04-23T04:07:16.368Z,95300.00
2023-04-23T04:08:15.857Z,95300.00
2023-04-23T04:09:14.825Z,95302.00
2023-04-23T04:10:15.875Z,95300.00
2023-04-23T04:11:15.907Z,95300.00
2023-04-23T04:12:15.950Z,95296.00
2023-04-23T04:13:16.015Z,95298.00
2023-04-23T04:14:16.086Z,95296.00
2023-04-23T04:15:16.060Z,95296.00
2023-04-23T04:16:16.119Z,95294.00
2023-04-23T04:17:16.292Z,95296.00
2023-04-23T04:18:15.203Z,95298.00
2023-04-23T04:19:16.329Z,95298.00
2023-04-23T04:20:16.309Z,95298.00
2023-04-23T04:21:16.310Z,95298.00
2023-04-23T04:22:16.372Z,95298.00
2023-04-23T04:23:16.404Z,95298.00
2023-04-23T04:24:16.443Z,95298.00
2023-04-23T04:25:15.487Z,95300.00
2023-04-23T04:26:15.506Z,95298.00
2023-04-23T04:27:16.563Z,95300.00
2023-04-23T04:28:16.264Z,95304.00
2023-04-23T04:29:16.647Z,95304.00
2023-04-23T04:30:16.692Z,95306.00
2023-04-23T04:31:16.757Z,95308.00
2023-04-23T04:32:16.759Z,95308.00
2023-04-23T04:33:16.847Z,95308.00
2023-04-23T04:34:16.853Z,95310.00
2023-04-23T04:35:17.330Z,95312.00
2023-04-23T04:36:16.938Z,95314.00
2023-04-23T04:37:16.982Z,95314.00
2023-04-23T04:38:17.057Z,95314.00
2023-04-23T04:39:17.840Z,95314.00
2023-04-23T04:40:17.440Z,95314.00
2023-04-23T04:41:16.168Z,95315.00
2023-04-23T04:42:17.202Z,95315.00
2023-04-23T04:43:17.316Z,95315.00
2023-04-23T04:44:16.299Z,95317.00
2023-04-23T04:45:17.445Z,95315.00
2023-04-23T04:46:16.425Z,95317.00
2023-04-23T04:47:17.456Z,95317.00
2023-04-23T04:48:17.124Z,95319.00
2023-04-23T04:49:16.535Z,95323.00
2023-04-23T04:50:17.612Z,95323.00
2023-04-23T04:51:17.627Z,95325.00
2023-04-23T04:52:17.682Z,95325.00
2023-04-23T04:53:17.707Z,95325.00
2023-04-23T04:54:16.772Z,95325.00
2023-04-23T04:55:17.811Z,95325.00
2023-04-23T04:56:17.847Z,95325.00
2023-04-23T04:57:17.903Z,95325.00
2023-04-23T04:58:17.952Z,95323.00
2023-04-23T04:59:17.998Z,95323.00
2023-04-23T05:00:18.054Z,95325.00
2023-04-23T05:01:17.105Z,95323.00
2023-04-23T05:02:17.238Z,95325.00
2023-04-23T05:03:18.286Z,95325.00
2023-04-23T05:04:18.430Z,95325.00
2023-04-23T05:05:18.292Z,95325.00
2023-04-23T05:06:17.327Z,95323.00
2023-04-23T05:07:18.402Z,95321.00
2023-04-23T05:08:17.443Z,95325.00
2023-04-23T05:09:17.493Z,95325.00
2023-04-23T05:10:18.578Z,95321.00
2023-04-23T05:11:18.573Z,95323.00
2023-04-23T05:12:18.624Z,95321.00
2023-04-23T05:13:17.929Z,95321.00
2023-04-23T05:14:18.701Z,95323.00
2023-04-23T05:15:18.803Z,95325.00
2023-04-23T05:16:18.954Z,95327.00
2023-04-23T05:17:17.858Z,95329.00
2023-04-23T05:18:18.904Z,95331.00
2023-04-23T05:19:17.934Z,95329.00
2023-04-23T05:20:19.001Z,95333.00
2023-04-23T05:21:18.028Z,95331.00
2023-04-23T05:22:19.091Z,95331.00
2023-04-23T05:23:18.188Z,95335.00
2023-04-23T05:24:18.181Z,95335.00
2023-04-23T05:25:18.230Z,95335.00
2023-04-23T05:26:19.544Z,95337.00
2023-04-23T05:27:18.419Z,95337.00
2023-04-23T05:28:18.437Z,95339.00
2023-04-23T05:29:19.503Z,95339.00
2023-04-23T05:30:18.496Z,95341.00
2023-04-23T05:31:18.553Z,95339.00
2023-04-23T05:32:18.624Z,95339.00
2023-04-23T05:33:18.666Z,95341.00
2023-04-23T05:34:19.689Z,95343.00
2023-04-23T05:35:19.714Z,95343.00
2023-04-23T05:36:19.777Z,95349.00
2023-04-23T05:37:19.808Z,95349.00
2023-04-23T05:38:18.885Z,95347.00
2023-04-23T05:39:18.913Z,95349.00
2023-04-23T05:40:19.954Z,95351.00
2023-04-23T05:41:19.999Z,95349.00
2023-04-23T05:42:19.107Z,95349.00
2023-04-23T05:43:20.210Z,95349.00
2023-04-23T05:44:19.210Z,95349.00
2023-04-23T05:45:19.236Z,95347.00
2023-04-23T05:46:20.349Z,95347.00
2023-04-23T05:47:20.444Z,95345.00
2023-04-23T05:48:19.399Z,95345.00
2023-04-23T05:49:20.436Z,95347.00
2023-04-23T05:50:20.476Z,95345.00
2023-04-23T05:51:20.521Z,95347.00
2023-04-23T05:52:19.707Z,95347.00
2023-04-23T05:53:20.620Z,95349.00
2023-04-23T05:54:19.763Z,95349.00
2023-04-23T05:55:19.790Z,95351.00
2023-04-23T05:56:20.788Z,95353.00
2023-04-23T05:57:20.816Z,95355.00
2023-04-23T05:58:19.899Z,95355.00
2023-04-23T05:59:20.912Z,95355.00
2023-04-23T06:00:20.941Z,95357.00
2023-04-23T06:01:19.993Z,95359.00
2023-04-23T06:02:21.350Z,95357.00
2023-04-23T06:03:21.800Z,95355.00
2023-04-23T06:04:21.498Z,95355.00
2023-04-23T06:05:21.472Z,95355.00
2023-04-23T06:06:20.205Z,95353.00
2023-04-23T06:07:20.342Z,95351.00
2023-04-23T06:08:22.371Z,95347.00
2023-04-23T06:09:20.300Z,95349.00
2023-04-23T06:10:21.300Z,95347.00
2023-04-23T06:11:20.285Z,95347.00
2023-04-23T06:12:20.282Z,95351.00
2023-04-23T06:13:21.281Z,95349.00
2023-04-23T06:14:21.309Z,95355.00
2023-04-23T06:15:21.263Z,95353.00
2023-04-23T06:16:20.274Z,95355.00
2023-04-23T06:17:21.244Z,95357.00
2023-04-23T06:18:21.235Z,95361.00
2023-04-23T06:19:21.244Z,95364.00
2023-04-23T06:20:21.227Z,95364.00
2023-04-23T06:21:21.209Z,95364.00
2023-04-23T06:22:20.213Z,95366.00
2023-04-23T06:23:21.209Z,95366.00
2023-04-23T06:24:21.227Z,95364.00
2023-04-23T06:25:21.212Z,95362.00
2023-04-23T06:26:20.190Z,95366.00
2023-04-23T06:27:21.176Z,95366.00
2023-04-23T06:28:20.180Z,95366.00
2023-04-23T06:29:20.155Z,95364.00
2023-04-23T06:30:21.171Z,95366.00
2023-04-23T06:31:21.177Z,95368.00
2023-04-23T06:32:21.148Z,95366.00
2023-04-23T06:33:21.134Z,95368.00
2023-04-23T06:34:21.137Z,95364.00
2023-04-23T06:35:20.123Z,95368.00
2023-04-23T06:36:20.121Z,95364.00
2023-04-23T06:37:20.144Z,95364.00
2023-04-23T06:38:21.148Z,95362.00
2023-04-23T06:39:21.205Z,95364.00
2023-04-23T06:40:21.237Z,95362.00
2023-04-23T06:41:21.270Z,95361.00
2023-04-23T06:42:21.341Z,95361.00
2023-04-23T06:43:20.385Z,95361.00
2023-04-23T06:44:21.469Z,95362.00
2023-04-23T06:45:20.497Z,95362.00
2023-04-23T06:46:20.569Z,95361.00
2023-04-23T06:47:20.595Z,95361.00
2023-04-23T06:48:20.655Z,95362.00
2023-04-23T06:49:21.683Z,95361.00
2023-04-23T06:50:21.717Z,95362.00
2023-04-23T06:51:21.174Z,95364.00
2023-04-23T06:52:20.820Z,95362.00
2023-04-23T06:53:21.875Z,95362.00
2023-04-23T06:54:21.927Z,95362.00
2023-04-23T06:55:21.985Z,95361.00
2023-04-23T06:56:22.035Z,95361.00
2023-04-23T06:57:21.073Z,95362.00
2023-04-23T06:58:21.127Z,95361.00
2023-04-23T06:59:21.174Z,95361.00
2023-04-23T07:00:21.241Z,95361.00
2023-04-23T07:01:22.344Z,95361.00
2023-04-23T07:02:21.331Z,95361.00
2023-04-23T07:03:22.479Z,95361.00
2023-04-23T07:04:22.833Z,95361.00
2023-04-23T07:05:21.630Z,95359.00
2023-04-23T07:06:22.513Z,95359.00
2023-04-23T07:07:21.552Z,95359.00
2023-04-23T07:08:22.618Z,95361.00
2023-04-23T07:09:21.657Z,95361.00
2023-04-23T07:10:22.741Z,95361.00
2023-04-23T07:11:22.759Z,95361.00
2023-04-23T07:12:21.807Z,95361.00
2023-04-23T07:13:21.852Z,95361.00
2023-04-23T07:14:21.903Z,95359.00
2023-04-23T07:15:22.993Z,95357.00
2023-04-23T07:16:22.433Z,95357.00
2023-04-23T07:17:23.098Z,95355.00
2023-04-23T07:18:22.101Z,95355.00
2023-04-23T07:19:23.137Z,95353.00
2023-04-23T07:20:23.179Z,95353.00
2023-04-23T07:21:23.527Z,95351.00
2023-04-23T07:22:23.289Z,95351.00
2023-04-23T07:23:22.337Z,95351.00
2023-04-23T07:24:22.387Z,95351.00
2023-04-23T07:25:23.423Z,95351.00
2023-04-23T07:26:23.488Z,95347.00
2023-04-23T07:27:23.526Z,95345.00
2023-04-23T07:28:23.575Z,95347.00
2023-04-23T07:29:22.625Z,95349.00
2023-04-23T07:30:22.681Z,95347.00
2023-04-23T07:31:23.794Z,95345.00
2023-04-23T07:32:23.831Z,95349.00
2023-04-23T07:33:23.862Z,95345.00
2023-04-23T07:34:22.959Z,95347.00
2023-04-23T07:35:23.925Z,95345.00
2023-04-23T07:36:22.981Z,95347.00
2023-04-23T07:37:24.005Z,95345.00
2023-04-23T07:38:24.075Z,95345.00
2023-04-23T07:39:24.109Z,95345.00
2023-04-23T07:40:23.173Z,95347.00
2023-04-23T07:41:23.210Z,95345.00
2023-04-23T07:42:24.251Z,95343.00
2023-04-23T07:43:24.306Z,95343.00
2023-04-23T07:44:24.345Z,95343.00
2023-04-23T07:45:23.379Z,95345.00
2023-04-23T07:46:23.461Z,95343.00
2023-04-23T07:47:24.505Z,95343.00
2023-04-23T07:48:24.514Z,95341.00
2023-04-23T07:49:23.590Z,95339.00
2023-04-23T07:50:24.677Z,95339.00
2023-04-23T07:51:23.649Z,95337.00
2023-04-23T07:52:23.677Z,95335.00
2023-04-23T07:53:24.715Z,95335.00
2023-04-23T07:54:25.583Z,95333.00
2023-04-23T07:55:23.777Z,95333.00
2023-04-23T07:56:23.831Z,95333.00
2023-04-23T07:57:24.865Z,95329.00
2023-04-23T07:58:23.894Z,95329.00
2023-04-23T07:59:24.946Z,95329.00
2023-04-23T08:00:25.009Z,95327.00
2023-04-23T08:01:25.016Z,95329.00
2023-04-23T08:02:25.130Z,95327.00
2023-04-23T08:03:24.311Z,95327.00
2023-04-23T08:04:25.336Z,95331.00
2023-04-23T08:05:25.177Z,95331.00
2023-04-23T08:06:25.175Z,95329.00
2023-04-23T08:07:25.219Z,95331.00
2023-04-23T08:08:25.238Z,95331.00
2023-04-23T08:09:24.300Z,95331.00
2023-04-23T08:10:25.306Z,95329.00
2023-04-23T08:11:25.350Z,95329.00
2023-04-23T08:12:25.391Z,95325.00
2023-04-23T08:13:24.413Z,95323.00
2023-04-23T08:14:25.468Z,95329.00
2023-04-23T08:15:25.472Z,95329.00
2023-04-23T08:16:24.565Z,95327.00
2023-04-23T08:17:25.569Z,95325.00
2023-04-23T08:18:24.565Z,95325.00
2023-04-23T08:19:25.606Z,95323.00
2023-04-23T08:20:25.606Z,95323.00
2023-04-23T08:21:25.660Z,95319.00
2023-04-23T08:22:25.693Z,95317.00
2023-04-23T08:23:25.694Z,95315.00
2023-04-23T08:24:25.754Z,95314.00
2023-04-23T08:25:24.760Z,95312.00
2023-04-23T08:26:25.777Z,95314.00
2023-04-23T08:27:24.816Z,95310.00
2023-04-23T08:28:24.834Z,95312.00
2023-04-23T08:29:25.889Z,95310.00
2023-04-23T08:30:25.886Z,95314.00
2023-04-23T08:31:27.182Z,95312.00
2023-04-23T08:32:25.054Z,95310.00
2023-04-23T08:33:25.956Z,95310.00
2023-04-23T08:34:25.995Z,95310.00
2023-04-23T08:35:25.996Z,95306.00
2023-04-23T08:36:25.015Z,95308.00
2023-04-23T08:37:30.731Z,95304.00
2023-04-23T08:38:26.031Z,95304.00
2023-04-23T08:39:26.044Z,95302.00
2023-04-23T08:40:25.022Z,95300.00
2023-04-23T08:41:26.040Z,95298.00
2023-04-23T08:42:25.019Z,95300.00
2023-04-23T08:43:25.015Z,95298.00
2023-04-23T08:44:26.112Z,95298.00
2023-04-23T08:45:26.003Z,95296.00
2023-04-23T08:46:26.031Z,95294.00
2023-04-23T08:47:25.986Z,95292.00
2023-04-23T08:48:25.969Z,95290.00
2023-04-23T08:49:25.983Z,95292.00
2023-04-23T08:50:25.960Z,95286.00
2023-04-23T08:51:25.944Z,95286.00
2023-04-23T08:52:25.944Z,95284.00
2023-04-23T08:53:25.946Z,95282.00
2023-04-23T08:54:24.914Z,95278.00
2023-04-23T08:55:25.925Z,95278.00
2023-04-23T08:56:25.913Z,95276.00
2023-04-23T08:57:24.897Z,95274.00
2023-04-23T08:58:24.892Z,95270.00
2023-04-23T08:59:24.887Z,95270.00
2023-04-23T09:00:25.935Z,95268.00
2023-04-23T09:01:25.881Z,95267.00
2023-04-23T09:02:25.116Z,95267.00
2023-04-23T09:03:25.920Z,95268.00
2023-04-23T09:04:25.853Z,95267.00
2023-04-23T09:05:24.858Z,95265.00
2023-04-23T09:06:25.825Z,95263.00
2023-04-23T09:07:24.823Z,95259.00
2023-04-23T09:08:24.913Z,95263.00
2023-04-23T09:09:25.829Z,95259.00
2023-04-23T09:10:24.815Z,95255.00
2023-04-23T09:11:25.818Z,95253.00
2023-04-23T09:12:24.795Z,95251.00
2023-04-23T09:13:25.793Z,95251.00
2023-04-23T09:14:25.776Z,95245.00
2023-04-23T09:15:25.781Z,95241.00
2023-04-23T09:16:25.822Z,95237.00
2023-04-23T09:17:25.840Z,95241.00
2023-04-23T09:18:25.752Z,95239.00
2023-04-23T09:19:24.754Z,95237.00
2023-04-23T09:20:25.752Z,95233.00
2023-04-23T09:21:24.730Z,95231.00
2023-04-23T09:22:25.724Z,95233.00
2023-04-23T09:23:25.742Z,95229.00
2023-04-23T09:24:25.718Z,95229.00
2023-04-23T09:25:25.728Z,95227.00
2023-04-23T09:26:25.706Z,95223.00
2023-04-23T09:27:24.699Z,95221.00
2023-04-23T09:28:25.683Z,95220.00
2023-04-23T09:29:25.748Z,95218.00
2023-04-23T09:30:25.681Z,95214.00
2023-04-23T09:31:24.706Z,95214.00
2023-04-23T09:32:25.663Z,95212.00
2023-04-23T09:33:25.658Z,95210.00
2023-04-23T09:34:24.634Z,95212.00
2023-04-23T09:35:24.644Z,95210.00
2023-04-23T09:36:24.633Z,95212.00
2023-04-23T09:37:24.610Z,95212.00
2023-04-23T09:38:25.600Z,95212.00
2023-04-23T09:39:25.602Z,95210.00
2023-04-23T09:40:25.610Z,95216.00
2023-04-23T09:41:24.614Z,95214.00
2023-04-23T09:42:24.586Z,95210.00
2023-04-23T09:43:25.571Z,95212.00
2023-04-23T09:44:24.576Z,95212.00
2023-04-23T09:45:24.611Z,95210.00
2023-04-23T09:46:25.680Z,95206.00
2023-04-23T09:47:25.259Z,95204.00
2023-04-23T09:48:25.615Z,95206.00
2023-04-23T09:49:24.631Z,95210.00
2023-04-23T09:50:25.624Z,95208.00
2023-04-23T09:51:24.657Z,95204.00
2023-04-23T09:52:24.633Z,95204.00
2023-04-23T09:53:24.649Z,95202.00
2023-04-23T09:54:25.642Z,95202.00
2023-04-23T09:55:25.656Z,95198.00
2023-04-23T09:56:25.666Z,95192.00
2023-04-23T09:57:24.683Z,95194.00
2023-04-23T09:58:25.620Z,95190.00
2023-04-23T09:59:36.089Z,95190.00
2023-04-23T10:00:25.655Z,95188.00
2023-04-23T10:01:25.679Z,95188.00
2023-04-23T10:02:25.737Z,95188.00
2023-04-23T10:03:25.956Z,95188.00
2023-04-23T10:04:25.783Z,95190.00
2023-04-23T10:05:29.415Z,95188.00
2023-04-23T10:06:40.803Z,95186.00
2023-04-23T10:07:25.632Z,95186.00
2023-04-23T10:08:25.594Z,95184.00
2023-04-23T10:09:24.648Z,95184.00
2023-04-23T10:10:25.608Z,95186.00
2023-04-23T10:11:24.590Z,95186.00
2023-04-23T10:13:24.601Z,95186.00
2023-04-23T10:14:25.548Z,95182.00
2023-04-23T10:15:25.557Z,95182.00
2023-04-23T10:16:28.570Z,95180.00
2023-04-23T10:17:25.570Z,95182.00
2023-04-23T10:18:24.524Z,95182.00
2023-04-23T10:19:25.531Z,95178.00
2023-04-23T10:20:24.534Z,95176.00
2023-04-23T10:21:26.312Z,95178.00
2023-04-23T10:22:25.497Z,95174.00
2023-04-23T10:23:25.495Z,95173.00
2023-04-23T10:24:25.473Z,95174.00
2023-04-23T10:25:25.496Z,95173.00
2023-04-23T10:26:24.481Z,95171.00
2023-04-23T10:27:33.508Z,95169.00
2023-04-23T10:28:25.455Z,95167.00
2023-04-23T10:29:24.473Z,95167.00
2023-04-23T10:30:25.476Z,95163.00
2023-04-23T10:31:25.463Z,95161.00
2023-04-23T10:32:25.447Z,95159.00
2023-04-23T10:33:29.811Z,95159.00
2023-04-23T10:34:25.428Z,95151.00
2023-04-23T10:35:25.420Z,95149.00
2023-04-23T10:36:25.462Z,95147.00
2023-04-23T10:37:24.383Z,95149.00
2023-04-23T10:38:24.373Z,95147.00
2023-04-23T10:39:29.966Z,95141.00
2023-04-23T10:40:25.376Z,95143.00
2023-04-23T10:41:25.406Z,95141.00
2023-04-23T10:42:24.334Z,95137.00
2023-04-23T10:43:25.331Z,95139.00
2023-04-23T10:45:25.756Z,95135.00
2023-04-23T10:46:24.338Z,95131.00
2023-04-23T10:47:25.345Z,95131.00
2023-04-23T10:48:25.345Z,95129.00
2023-04-23T10:49:24.286Z,95131.00
2023-04-23T10:50:24.278Z,95129.00
2023-04-23T10:52:13.899Z,95129.00
2023-04-23T10:52:26.184Z,95125.00
2023-04-23T10:53:24.255Z,95127.00
2023-04-23T10:54:25.247Z,95127.00
2023-04-23T10:55:25.246Z,95125.00
2023-04-23T10:56:24.257Z,95123.00
2023-04-23T10:57:24.232Z,95123.00
2023-04-23T10:58:25.210Z,95125.00
2023-04-23T10:59:25.202Z,95123.00
2023-04-23T11:00:25.213Z,95121.00
2023-04-23T11:01:25.238Z,95123.00
2023-04-23T11:02:25.376Z,95121.00
2023-04-23T11:03:24.396Z,95120.00
2023-04-23T11:04:25.478Z,95120.00
2023-04-23T11:05:25.246Z,95116.00
2023-04-23T11:06:25.278Z,95118.00
2023-04-23T11:07:25.308Z,95114.00
2023-04-23T11:08:25.364Z,95120.00
2023-04-23T11:09:24.410Z,95120.00
2023-04-23T11:10:24.417Z,95118.00
2023-04-23T11:11:25.456Z,95116.00
2023-04-23T11:12:24.513Z,95114.00
2023-04-23T11:13:25.535Z,95112.00
2023-04-23T11:14:24.553Z,95110.00
2023-04-23T11:15:24.589Z,95108.00
2023-04-23T11:16:25.742Z,95104.00
2023-04-23T11:17:24.764Z,95100.00
2023-04-23T11:18:24.721Z,95098.00
2023-04-23T11:19:24.772Z,95098.00
2023-04-23T11:20:25.914Z,95094.00
2023-04-23T11:21:25.868Z,95092.00
2023-04-23T11:22:25.912Z,95094.00
2023-04-23T11:23:24.957Z,95090.00
2023-04-23T11:24:25.026Z,95088.00
2023-04-23T11:25:25.076Z,95084.00
2023-04-23T11:26:25.171Z,95082.00
2023-04-23T11:27:25.180Z,95080.00
2023-04-23T11:28:26.247Z,95076.00
2023-04-23T11:29:26.335Z,95074.00
2023-04-23T11:30:25.352Z,95073.00
2023-04-23T11:31:26.511Z,95073.00
2023-04-23T11:32:26.593Z,95067.00
2023-04-23T11:33:26.602Z,95065.00
2023-04-23T11:34:25.577Z,95067.00
2023-04-23T11:35:26.620Z,95063.00
2023-04-23T11:36:25.682Z,95061.00
2023-04-23T11:37:25.703Z,95057.00
2023-04-23T11:38:26.743Z,95053.00
2023-04-23T11:39:26.812Z,95053.00
2023-04-23T11:40:26.845Z,95051.00
2023-04-23T11:41:26.893Z,95051.00
2023-04-23T11:42:26.981Z,95047.00
2023-04-23T11:43:27.025Z,95045.00
2023-04-23T11:44:27.069Z,95041.00
2023-04-23T11:45:27.127Z,95039.00
2023-04-23T11:46:26.313Z,95043.00